Time;durP1;ratioP1;P1;durP2;ratioP2;P2;SDS_P1;SDS_P2;PMS_P1;PMS_P2;Temp;Humidity;BMP_temperature;BMP_pressure;BME280_temperature;BME280_humidity;BME280_pressure;Samples;Min_cycle;Max_cycle;Signal;HPM_P1;HPM_P2
2023/01/26 00:00:51;;;;;;;28.17;19.20;;;1.80;99.90;;;;;;6177679;23;20188;-69
2023/01/26 00:03:19;;;;;;;25.95;17.52;;;1.80;99.90;;;;;;6194755;23;20817;-68
2023/01/26 00:05:46;;;;;;;24.75;17.13;;;1.80;99.90;;;;;;6179705;23;20219;-68
2023/01/26 00:08:13;;;;;;;24.75;16.77;;;1.80;99.90;;;;;;6200247;23;20257;-68
2023/01/26 00:10:48;;;;;;;24.35;17.02;;;1.70;99.90;;;;;;6190561;23;20222;-69
2023/01/26 00:13:18;;;;;;;26.63;17.95;;;1.80;99.90;;;;;;6187345;23;20206;-68
2023/01/26 00:15:45;;;;;;;25.45;17.40;;;1.80;99.90;;;;;;6194078;23;20256;-69
2023/01/26 00:18:14;;;;;;;25.38;17.63;;;1.80;99.90;;;;;;6194016;23;20250;-69
2023/01/26 00:20:41;;;;;;;21.88;15.60;;;1.80;99.90;;;;;;6193810;23;20615;-68
2023/01/26 00:23:08;;;;;;;23.10;17.70;;;1.80;99.90;;;;;;6177174;23;20286;-69
2023/01/26 00:25:38;;;;;;;22.40;15.73;;;1.90;99.90;;;;;;6180090;23;20561;-68
2023/01/26 00:28:05;;;;;;;21.08;15.23;;;1.90;99.90;;;;;;6200772;23;20524;-68
2023/01/26 00:30:33;;;;;;;26.45;18.05;;;2.00;99.90;;;;;;6184184;23;20194;-69
2023/01/26 00:32:59;;;;;;;21.25;15.07;;;2.00;99.90;;;;;;6177376;23;20274;-68
2023/01/26 00:35:28;;;;;;;21.00;16.30;;;2.00;99.90;;;;;;6186180;23;20198;-68
2023/01/26 00:37:55;;;;;;;21.88;15.85;;;2.00;99.90;;;;;;6203710;23;20222;-67
2023/01/26 00:40:22;;;;;;;22.35;14.85;;;2.00;99.90;;;;;;6182324;23;20185;-68
2023/01/26 00:42:49;;;;;;;21.75;15.60;;;2.00;99.90;;;;;;6187699;23;20271;-68
2023/01/26 00:45:16;;;;;;;21.27;15.95;;;2.00;99.90;;;;;;6190686;23;20260;-68
2023/01/26 00:50:17;;;;;;;23.73;15.63;;;2.10;99.90;;;;;;6187716;23;20194;-68
2023/01/26 00:52:45;;;;;;;20.15;14.60;;;2.10;99.90;;;;;;6192072;23;20822;-68
2023/01/26 00:55:12;;;;;;;20.73;15.25;;;2.10;99.90;;;;;;6197498;23;20303;-68
2023/01/26 00:57:39;;;;;;;21.00;15.20;;;2.10;99.90;;;;;;6211960;23;20207;-69
2023/01/26 01:00:09;;;;;;;18.70;13.88;;;2.10;99.90;;;;;;6184179;23;20616;-68
2023/01/26 01:02:36;;;;;;;20.25;15.07;;;2.20;99.90;;;;;;6176949;23;20528;-68
2023/01/26 01:05:04;;;;;;;20.08;15.35;;;2.20;99.90;;;;;;6188291;23;20216;-69
2023/01/26 01:07:30;;;;;;;20.02;14.98;;;2.20;99.90;;;;;;6200933;23;20189;-68
2023/01/26 01:09:59;;;;;;;20.90;13.77;;;2.10;99.90;;;;;;6181366;23;20188;-69
2023/01/26 01:12:26;;;;;;;21.65;15.23;;;2.10;99.90;;;;;;6176638;23;20184;-69
2023/01/26 01:14:53;;;;;;;21.92;15.75;;;2.10;99.90;;;;;;6179607;23;20865;-69
2023/01/26 01:17:20;;;;;;;19.10;14.57;;;2.10;99.90;;;;;;6172900;23;20218;-68
2023/01/26 01:19:47;;;;;;;19.67;14.10;;;2.10;99.90;;;;;;6174186;23;20224;-68
2023/01/26 01:22:14;;;;;;;20.98;15.82;;;2.20;99.90;;;;;;6206779;23;20185;-68
2023/01/26 01:24:41;;;;;;;20.50;15.25;;;2.20;99.90;;;;;;6201045;23;20291;-69
2023/01/26 01:27:09;;;;;;;18.80;13.60;;;2.20;99.90;;;;;;6184160;23;20201;-69
2023/01/26 01:29:37;;;;;;;18.40;13.55;;;2.20;99.90;;;;;;6179153;23;20256;-70
2023/01/26 01:32:04;;;;;;;19.25;14.02;;;2.20;99.90;;;;;;6210761;23;20220;-69
2023/01/26 01:34:31;;;;;;;21.70;14.35;;;2.10;99.90;;;;;;6180062;23;20216;-69
2023/01/26 01:36:58;;;;;;;20.02;14.40;;;2.10;99.90;;;;;;6185662;23;20211;-68
2023/01/26 01:39:25;;;;;;;19.00;13.35;;;1.80;99.90;;;;;;6199121;23;20211;-69
2023/01/26 01:41:52;;;;;;;18.52;14.30;;;1.70;99.90;;;;;;6179326;23;20220;-69
2023/01/26 01:44:22;;;;;;;16.60;12.20;;;1.60;99.90;;;;;;6181347;23;20227;-69
2023/01/26 01:46:53;;;;;;;19.67;13.18;;;1.60;99.90;;;;;;6182424;23;20268;-69
2023/01/26 01:49:25;;;;;;;20.60;13.65;;;1.60;99.90;;;;;;6183912;23;20314;-69
2023/01/26 01:51:55;;;;;;;18.88;13.43;;;1.50;99.90;;;;;;6178565;23;20666;-69
2023/01/26 01:54:28;;;;;;;20.08;14.85;;;1.50;99.90;;;;;;6178448;23;20753;-70
2023/01/26 01:57:00;;;;;;;19.15;13.60;;;1.40;99.90;;;;;;6190724;23;20222;-70
2023/01/26 01:59:30;;;;;;;20.80;14.75;;;1.40;99.90;;;;;;6183938;23;20302;-69
2023/01/26 02:01:57;;;;;;;21.30;14.38;;;1.40;99.90;;;;;;6182992;23;20187;-69
2023/01/26 02:04:26;;;;;;;20.20;13.02;;;1.50;99.90;;;;;;6185099;23;20202;-70
2023/01/26 02:06:56;;;;;;;21.35;15.60;;;1.50;99.90;;;;;;6178435;23;20641;-69
2023/01/26 02:12:23;;;;;;;21.48;14.20;;;1.40;99.90;;;;;;6197594;23;20188;-69
2023/01/26 02:14:53;;;;;;;21.33;15.18;;;1.40;99.90;;;;;;6195964;23;20202;-69
2023/01/26 02:17:20;;;;;;;20.40;13.98;;;1.50;99.90;;;;;;6197456;23;20219;-70
2023/01/26 02:19:55;;;;;;;20.80;14.63;;;1.50;99.90;;;;;;6184505;23;20186;-70
2023/01/26 02:22:31;;;;;;;20.50;14.18;;;1.60;99.90;;;;;;6190070;23;20266;-70
2023/01/26 02:25:04;;;;;;;20.67;14.65;;;1.60;99.90;;;;;;6190233;23;20204;-69
2023/01/26 02:27:32;;;;;;;19.83;14.27;;;1.70;99.90;;;;;;6211963;23;20186;-69
2023/01/26 02:30:00;;;;;;;21.40;14.38;;;1.70;99.90;;;;;;6193534;23;20186;-70
2023/01/26 02:32:27;;;;;;;19.67;14.80;;;1.70;99.90;;;;;;6201455;23;20266;-69
2023/01/26 02:34:57;;;;;;;18.70;13.40;;;1.80;99.90;;;;;;6182648;23;20279;-70
2023/01/26 02:37:24;;;;;;;16.85;12.32;;;1.80;99.90;;;;;;6189874;23;20215;-69
2023/01/26 02:39:56;;;;;;;19.45;13.68;;;1.80;99.90;;;;;;6185689;23;20223;-70
2023/01/26 02:42:38;;;;;;;20.27;13.73;;;1.80;99.90;;;;;;6204506;23;20190;-69
2023/01/26 02:45:07;;;;;;;17.45;13.10;;;1.90;99.90;;;;;;6213333;23;20210;-69
2023/01/26 02:47:35;;;;;;;16.23;12.43;;;1.90;99.90;;;;;;6201488;23;20240;-70
2023/01/26 02:50:01;;;;;;;20.52;15.10;;;1.90;99.90;;;;;;6181084;23;20268;-70
2023/01/26 02:52:30;;;;;;;16.80;13.13;;;1.90;99.90;;;;;;6197686;23;20216;-70
2023/01/26 02:57:43;;;;;;;19.27;13.75;;;1.90;99.90;;;;;;6215596;23;20293;-69
2023/01/26 03:00:16;;;;;;;19.58;13.65;;;1.90;99.90;;;;;;6204922;23;20613;-69
2023/01/26 03:02:44;;;;;;;18.50;14.20;;;1.90;99.90;;;;;;6191257;23;20188;-69
2023/01/26 03:05:11;;;;;;;17.88;13.65;;;1.80;99.90;;;;;;6199648;23;20285;-70
2023/01/26 03:07:38;;;;;;;19.60;14.95;;;1.80;99.90;;;;;;6190668;23;20174;-70
2023/01/26 03:10:06;;;;;;;17.67;13.93;;;1.80;99.90;;;;;;6197703;23;20211;-70
2023/01/26 03:12:33;;;;;;;17.95;13.57;;;1.80;99.90;;;;;;6203849;23;20183;-69
2023/01/26 03:17:46;;;;;;;19.60;14.18;;;1.80;99.90;;;;;;6211733;23;20255;-70
2023/01/26 03:28:27;;;;;;;17.77;13.60;;;1.80;99.90;;;;;;6183179;23;20285;-70
2023/01/26 03:30:57;;;;;;;19.15;14.25;;;1.80;99.90;;;;;;6183293;23;20208;-69
2023/01/26 03:33:25;;;;;;;19.00;13.80;;;1.80;99.90;;;;;;6201814;23;20264;-70
2023/01/26 03:35:54;;;;;;;18.17;12.30;;;1.80;99.90;;;;;;6193209;23;20233;-70
2023/01/26 03:38:21;;;;;;;19.52;14.02;;;1.80;99.90;;;;;;6190087;23;20213;-69
2023/01/26 03:57:18;;;;;;;26.83;17.05;;;1.60;99.90;;;;;;6200348;23;20825;-69
2023/01/26 03:59:45;;;;;;;27.13;17.52;;;1.70;99.90;;;;;;6199717;23;20189;-68
2023/01/26 04:10:28;;;;;;;25.92;18.67;;;1.50;99.90;;;;;;6199862;23;20181;-69
2023/01/26 04:21:26;;;;;;;25.75;17.25;;;1.60;99.90;;;;;;6189818;23;20175;-68
2023/01/26 04:23:55;;;;;;;24.27;16.48;;;1.60;99.90;;;;;;6201937;23;20614;-69
2023/01/26 04:26:22;;;;;;;24.55;17.95;;;1.60;99.90;;;;;;6195365;23;20571;-68
2023/01/26 04:28:49;;;;;;;22.30;16.40;;;1.70;99.90;;;;;;6186120;23;20195;-69
2023/01/26 04:31:17;;;;;;;28.05;16.00;;;1.70;99.90;;;;;;6184454;23;20268;-68
2023/01/26 04:33:44;;;;;;;23.85;16.10;;;1.70;99.90;;;;;;6205068;23;20261;-68
2023/01/26 04:36:12;;;;;;;21.73;15.77;;;1.60;99.90;;;;;;6177633;23;20726;-68
2023/01/26 04:38:39;;;;;;;27.60;16.27;;;1.70;99.90;;;;;;6194617;23;20689;-69
2023/01/26 04:41:06;;;;;;;25.15;16.58;;;1.60;99.90;;;;;;6181046;23;20179;-68
2023/01/26 04:43:33;;;;;;;23.75;17.23;;;1.60;99.90;;;;;;6194117;23;20197;-68
2023/01/26 04:46:01;;;;;;;22.63;15.80;;;1.60;99.90;;;;;;6205554;23;20183;-68
2023/01/26 04:48:29;;;;;;;21.85;15.10;;;1.60;99.90;;;;;;6193829;23;20179;-68
2023/01/26 04:50:57;;;;;;;24.58;16.13;;;1.60;99.90;;;;;;6192709;23;20745;-69
2023/01/26 04:53:25;;;;;;;21.38;14.55;;;1.70;99.90;;;;;;6208499;23;20214;-68
2023/01/26 04:55:53;;;;;;;18.88;14.35;;;1.70;99.90;;;;;;6179078;23;20206;-69
2023/01/26 04:58:20;;;;;;;24.67;17.38;;;1.70;99.90;;;;;;6180887;23;20230;-69
2023/01/26 05:00:50;;;;;;;24.60;16.77;;;1.60;99.90;;;;;;6189431;23;20539;-69
2023/01/26 05:03:18;;;;;;;20.60;15.30;;;1.60;99.90;;;;;;6179121;23;20192;-68
2023/01/26 05:05:47;;;;;;;19.75;13.75;;;1.60;99.90;;;;;;6199714;23;20271;-69
2023/01/26 05:08:14;;;;;;;21.70;15.80;;;1.60;99.90;;;;;;6180865;23;20210;-68
2023/01/26 05:10:43;;;;;;;20.75;15.10;;;1.60;99.90;;;;;;6186197;23;20251;-69
2023/01/26 05:13:10;;;;;;;20.48;14.77;;;1.60;99.90;;;;;;6174287;23;20520;-68
2023/01/26 05:15:37;;;;;;;22.17;15.90;;;1.50;99.90;;;;;;6192607;23;20214;-69
2023/01/26 05:18:05;;;;;;;20.83;14.75;;;1.50;99.90;;;;;;6200699;23;20207;-68
2023/01/26 05:20:32;;;;;;;22.38;14.63;;;1.50;99.90;;;;;;6203778;23;20188;-70
2023/01/26 05:22:59;;;;;;;22.73;15.95;;;1.50;99.90;;;;;;6183414;23;20194;-69
2023/01/26 05:25:26;;;;;;;19.27;14.20;;;1.50;99.90;;;;;;6194866;23;20607;-69
2023/01/26 05:27:55;;;;;;;21.45;14.60;;;1.50;99.90;;;;;;6201231;23;20247;-69
2023/01/26 05:30:22;;;;;;;22.35;14.75;;;1.50;99.90;;;;;;6179984;23;20289;-69
2023/01/26 05:32:49;;;;;;;23.35;17.38;;;1.50;99.90;;;;;;6182725;23;20186;-70
2023/01/26 05:35:16;;;;;;;21.35;15.98;;;1.50;99.90;;;;;;6168874;23;20697;-69
2023/01/26 05:37:44;;;;;;;24.67;18.25;;;1.50;99.90;;;;;;6182464;23;21193;-69
2023/01/26 05:40:12;;;;;;;22.45;16.98;;;1.50;99.90;;;;;;6183097;23;20274;-69
2023/01/26 05:42:39;;;;;;;23.40;16.48;;;1.50;99.90;;;;;;6203354;23;20169;-69
2023/01/26 05:45:08;;;;;;;21.80;16.83;;;1.50;99.90;;;;;;6185371;23;20305;-70
2023/01/26 05:47:36;;;;;;;21.88;17.42;;;1.50;99.90;;;;;;6186478;23;20191;-67
2023/01/26 05:50:04;;;;;;;23.10;17.13;;;1.50;99.90;;;;;;6194371;23;20271;-67
2023/01/26 05:52:31;;;;;;;20.00;14.82;;;1.50;99.90;;;;;;6199713;23;20245;-67
2023/01/26 05:54:58;;;;;;;21.52;15.43;;;1.50;99.90;;;;;;6183482;23;20612;-67
2023/01/26 05:57:25;;;;;;;22.17;15.20;;;1.40;99.90;;;;;;6182738;23;20183;-67
2023/01/26 05:59:52;;;;;;;22.23;16.50;;;1.60;99.90;;;;;;6187664;23;20745;-67
2023/01/26 06:02:21;;;;;;;21.35;14.90;;;1.40;99.90;;;;;;6180915;23;20191;-86
2023/01/26 06:04:48;;;;;;;23.33;15.45;;;1.40;99.90;;;;;;6186878;23;20217;-68
2023/01/26 06:07:15;;;;;;;23.35;16.98;;;1.40;99.90;;;;;;6204448;23;20210;-69
2023/01/26 06:09:42;;;;;;;24.25;17.27;;;1.40;99.90;;;;;;6199022;23;20308;-69
2023/01/26 06:12:15;;;;;;;22.30;16.42;;;1.30;99.90;;;;;;6193668;23;20189;-69
2023/01/26 06:14:42;;;;;;;19.58;14.40;;;1.30;99.90;;;;;;6175291;23;20219;-69
2023/01/26 06:17:10;;;;;;;22.65;15.10;;;1.30;99.90;;;;;;6180179;23;20258;-68
2023/01/26 06:19:38;;;;;;;20.38;15.20;;;1.30;99.90;;;;;;6180943;23;20205;-68
2023/01/26 06:22:08;;;;;;;22.88;16.40;;;1.30;99.90;;;;;;6183661;23;20183;-68
2023/01/26 06:24:34;;;;;;;20.98;15.75;;;1.30;99.90;;;;;;6195688;23;20199;-68
2023/01/26 06:27:02;;;;;;;20.33;14.80;;;1.30;99.90;;;;;;6193030;23;20189;-68
2023/01/26 06:29:29;;;;;;;19.75;15.15;;;1.30;99.90;;;;;;6186085;23;20183;-68
2023/01/26 06:31:56;;;;;;;22.40;16.10;;;1.30;99.90;;;;;;6179427;23;20262;-68
2023/01/26 06:34:23;;;;;;;19.52;13.93;;;1.30;99.90;;;;;;6188349;23;20225;-68
2023/01/26 06:36:52;;;;;;;22.23;16.10;;;1.30;99.90;;;;;;6192714;23;20191;-68
2023/01/26 06:39:19;;;;;;;22.40;16.60;;;1.40;99.90;;;;;;6192627;23;20206;-68
2023/01/26 06:41:46;;;;;;;20.30;15.10;;;1.30;99.90;;;;;;6190108;23;20240;-68
2023/01/26 06:44:13;;;;;;;20.13;15.02;;;1.40;99.90;;;;;;6193869;23;20264;-68
2023/01/26 06:46:40;;;;;;;20.92;15.13;;;1.40;99.90;;;;;;6191552;23;20265;-68
2023/01/26 06:49:07;;;;;;;22.40;14.65;;;1.50;99.90;;;;;;6192368;23;20191;-69
2023/01/26 06:51:50;;;;;;;29.25;19.50;;;1.50;99.90;;;;;;6190164;23;20177;-68
2023/01/26 06:54:18;;;;;;;25.00;18.33;;;1.50;99.90;;;;;;6191985;23;20230;-67
2023/01/26 06:56:45;;;;;;;24.00;17.70;;;1.50;99.90;;;;;;6188508;23;20202;-68
2023/01/26 06:59:13;;;;;;;19.23;14.60;;;1.50;99.90;;;;;;6185482;23;20270;-68
2023/01/26 07:01:43;;;;;;;15.85;12.65;;;1.50;99.90;;;;;;6188065;23;20179;-68
2023/01/26 07:04:11;;;;;;;18.10;13.55;;;1.50;99.90;;;;;;6192213;23;20285;-68
2023/01/26 07:06:38;;;;;;;18.65;14.80;;;1.50;99.90;;;;;;6186979;23;20313;-67
2023/01/26 07:09:05;;;;;;;19.30;14.30;;;1.50;99.90;;;;;;6195289;23;20183;-67
2023/01/26 07:11:33;;;;;;;19.45;14.27;;;1.40;99.90;;;;;;6193075;23;20178;-68
2023/01/26 07:14:00;;;;;;;14.48;11.70;;;1.40;99.90;;;;;;6189483;23;20238;-68
2023/01/26 07:16:27;;;;;;;17.13;13.50;;;1.40;99.90;;;;;;6196646;23;20229;-68
2023/01/26 07:18:55;;;;;;;15.32;12.50;;;1.40;99.90;;;;;;6204104;23;20221;-67
2023/01/26 07:21:23;;;;;;;17.27;13.23;;;1.40;99.90;;;;;;6186027;23;20683;-67
2023/01/26 07:23:50;;;;;;;17.85;12.60;;;1.30;99.90;;;;;;6186752;23;20277;-68
2023/01/26 07:26:18;;;;;;;16.33;12.88;;;1.30;99.90;;;;;;6197637;23;20189;-68
2023/01/26 07:28:46;;;;;;;21.40;14.75;;;1.30;99.90;;;;;;6197413;23;20191;-68
2023/01/26 07:31:13;;;;;;;17.60;12.15;;;1.30;99.90;;;;;;6197757;23;20262;-68
2023/01/26 07:33:40;;;;;;;18.00;13.20;;;1.30;99.90;;;;;;6186124;23;20686;-68
2023/01/26 07:36:09;;;;;;;21.15;14.90;;;1.20;99.90;;;;;;6187549;23;20339;-68
2023/01/26 07:38:36;;;;;;;20.58;14.75;;;1.40;99.90;;;;;;6195097;23;20196;-70
2023/01/26 07:41:09;;;;;;;22.75;16.13;;;1.30;99.90;;;;;;6196007;23;20265;-68
2023/01/26 07:43:37;;;;;;;18.65;13.95;;;1.30;99.90;;;;;;6195706;23;20205;-68
2023/01/26 07:46:06;;;;;;;20.30;15.35;;;1.40;99.90;;;;;;6183819;23;20328;-68
2023/01/26 07:48:33;;;;;;;20.38;13.65;;;1.40;99.90;;;;;;6206293;23;20196;-68
2023/01/26 07:51:02;;;;;;;17.60;13.68;;;1.40;99.90;;;;;;6199827;23;20270;-68
2023/01/26 07:53:29;;;;;;;19.02;14.20;;;1.40;99.90;;;;;;6191103;23;20214;-67
2023/01/26 07:56:06;;;;;;;19.15;13.80;;;1.40;99.90;;;;;;6185928;23;20241;-69
2023/01/26 07:58:35;;;;;;;19.67;13.20;;;1.30;99.90;;;;;;6181991;23;20227;-68
2023/01/26 08:01:11;;;;;;;17.42;13.05;;;1.30;99.90;;;;;;6198888;23;20193;-68
2023/01/26 08:03:39;;;;;;;16.85;11.80;;;1.30;99.90;;;;;;6183010;23;20205;-68
2023/01/26 08:06:07;;;;;;;18.85;12.75;;;1.40;99.90;;;;;;6193006;23;20188;-68
2023/01/26 08:08:34;;;;;;;19.50;14.98;;;1.40;99.90;;;;;;6188259;23;20240;-68
2023/01/26 08:11:02;;;;;;;19.63;13.63;;;1.50;99.90;;;;;;6198338;23;20183;-68
2023/01/26 08:13:30;;;;;;;22.15;14.93;;;1.50;99.90;;;;;;6189257;23;20239;-70
2023/01/26 08:16:01;;;;;;;19.38;13.73;;;1.60;99.90;;;;;;6199281;23;20183;-68
2023/01/26 08:18:29;;;;;;;21.48;15.57;;;1.60;99.90;;;;;;6194330;23;20807;-69
2023/01/26 08:20:56;;;;;;;19.63;13.38;;;1.60;99.90;;;;;;6193959;23;20185;-69
2023/01/26 08:23:23;;;;;;;19.63;13.73;;;1.60;99.90;;;;;;6194525;23;20280;-69
2023/01/26 08:25:50;;;;;;;17.50;13.88;;;1.70;99.90;;;;;;6194652;23;20193;-69
2023/01/26 08:28:17;;;;;;;18.25;13.13;;;1.70;99.90;;;;;;6187525;23;20543;-68
2023/01/26 08:30:44;;;;;;;16.10;12.75;;;1.60;99.90;;;;;;6196352;23;20737;-67
2023/01/26 08:33:11;;;;;;;17.85;12.98;;;1.60;99.90;;;;;;6196941;23;20202;-68
2023/01/26 08:35:39;;;;;;;20.70;14.07;;;1.70;99.90;;;;;;6193900;23;20178;-68
2023/01/26 08:38:06;;;;;;;20.00;13.35;;;1.70;99.90;;;;;;6187981;23;20188;-68
2023/01/26 08:40:33;;;;;;;19.02;13.32;;;1.70;99.90;;;;;;6199359;23;20184;-68
2023/01/26 08:43:02;;;;;;;21.40;14.93;;;1.70;99.90;;;;;;6198328;23;20214;-69
2023/01/26 08:45:29;;;;;;;20.90;15.57;;;1.70;99.90;;;;;;6196427;23;20194;-69
2023/01/26 08:47:57;;;;;;;19.83;13.88;;;1.80;99.90;;;;;;6188781;23;20183;-69
2023/01/26 08:50:25;;;;;;;18.40;13.13;;;1.70;99.90;;;;;;6203220;23;20606;-68
2023/01/26 08:52:55;;;;;;;19.33;12.65;;;1.70;99.90;;;;;;6195951;23;20189;-69
2023/01/26 08:55:22;;;;;;;22.13;12.88;;;1.70;99.90;;;;;;6200796;23;20245;-69
2023/01/26 08:57:53;;;;;;;20.15;14.23;;;1.70;99.90;;;;;;6187870;23;20190;-69
2023/01/26 09:00:22;;;;;;;19.08;13.88;;;1.70;99.90;;;;;;6203211;23;20214;-69
2023/01/26 09:02:50;;;;;;;21.05;15.13;;;1.60;99.90;;;;;;6193860;23;20539;-68
2023/01/26 09:05:17;;;;;;;19.20;13.15;;;1.70;99.90;;;;;;6204207;23;20218;-68
2023/01/26 09:07:44;;;;;;;17.80;12.30;;;1.70;99.90;;;;;;6202664;23;20642;-69
2023/01/26 09:10:13;;;;;;;15.40;10.82;;;1.70;99.90;;;;;;6198582;23;20187;-70
2023/01/26 09:12:40;;;;;;;14.93;10.73;;;1.60;99.90;;;;;;6187277;23;20182;-68
2023/01/26 09:15:08;;;;;;;17.48;12.15;;;1.60;99.90;;;;;;6198501;23;20703;-68
2023/01/26 09:17:36;;;;;;;16.00;11.40;;;1.50;99.90;;;;;;6197574;23;20551;-68
2023/01/26 09:20:03;;;;;;;13.27;11.00;;;1.50;99.90;;;;;;6195127;23;20609;-70
2023/01/26 09:22:30;;;;;;;15.90;11.02;;;1.40;99.90;;;;;;6189315;23;20209;-68
2023/01/26 09:24:58;;;;;;;15.32;10.10;;;1.40;99.90;;;;;;6199925;23;20270;-69
2023/01/26 09:27:26;;;;;;;17.13;11.40;;;1.30;99.90;;;;;;6197666;23;20591;-69
2023/01/26 09:29:54;;;;;;;19.67;12.13;;;1.30;99.90;;;;;;6199131;23;20262;-69
2023/01/26 09:32:22;;;;;;;15.40;11.70;;;1.30;99.90;;;;;;6187374;23;20183;-69
2023/01/26 09:34:49;;;;;;;18.85;13.07;;;1.30;99.90;;;;;;6196140;23;20293;-69
2023/01/26 09:37:16;;;;;;;15.63;11.80;;;1.30;99.90;;;;;;6190716;23;20198;-69
2023/01/26 09:39:43;;;;;;;16.02;10.60;;;1.30;99.90;;;;;;6197575;23;20359;-68
2023/01/26 09:42:30;;;;;;;17.95;12.32;;;1.30;99.90;;;;;;6192107;23;20199;-68
2023/01/26 09:45:12;;;;;;;15.93;10.98;;;1.30;99.90;;;;;;6197542;23;20217;-68
2023/01/26 09:47:53;;;;;;;16.80;11.50;;;1.20;99.90;;;;;;6188616;23;20194;-68
2023/01/26 09:50:26;;;;;;;16.83;12.57;;;1.20;99.90;;;;;;6196290;23;20631;-68
2023/01/26 09:52:57;;;;;;;17.48;11.98;;;1.20;99.90;;;;;;6193902;23;20251;-68
2023/01/26 09:55:25;;;;;;;15.35;11.15;;;1.20;99.90;;;;;;6196888;23;20254;-68
2023/01/26 09:58:00;;;;;;;17.23;11.68;;;1.10;99.90;;;;;;6188191;23;20183;-68
2023/01/26 10:00:31;;;;;;;16.20;11.50;;;1.20;99.90;;;;;;6199671;23;20242;-68
2023/01/26 10:03:10;;;;;;;16.70;11.23;;;1.20;99.90;;;;;;6191803;23;20203;-68
2023/01/26 10:05:45;;;;;;;14.93;9.80;;;1.30;99.90;;;;;;6196920;23;20178;-68
2023/01/26 10:08:14;;;;;;;16.15;10.23;;;1.30;99.90;;;;;;6197682;23;20193;-68
2023/01/26 10:10:46;;;;;;;15.27;10.40;;;1.30;99.90;;;;;;6194638;23;20182;-68
2023/01/26 10:13:16;;;;;;;16.83;10.55;;;1.20;99.90;;;;;;6198652;23;20733;-69
2023/01/26 10:15:47;;;;;;;15.02;10.40;;;1.20;99.90;;;;;;6191061;23;20618;-69
2023/01/26 10:18:18;;;;;;;14.52;10.93;;;1.20;99.90;;;;;;6201599;23;20189;-69
2023/01/26 10:20:50;;;;;;;14.82;10.15;;;1.20;99.90;;;;;;6200514;23;20257;-69
2023/01/26 10:23:20;;;;;;;15.93;9.88;;;1.20;99.90;;;;;;6188870;23;20283;-70
2023/01/26 10:25:49;;;;;;;14.15;10.32;;;1.20;99.90;;;;;;6194787;23;20227;-69
2023/01/26 10:28:19;;;;;;;16.25;10.02;;;1.20;99.90;;;;;;6194866;23;20187;-69
2023/01/26 10:30:50;;;;;;;14.32;9.73;;;1.20;99.90;;;;;;6182679;23;20197;-70
2023/01/26 10:33:19;;;;;;;14.50;9.43;;;1.20;99.90;;;;;;6184321;23;20213;-68
2023/01/26 10:35:46;;;;;;;14.18;9.70;;;1.20;99.90;;;;;;6194355;23;20189;-70
2023/01/26 10:38:43;;;;;;;12.60;9.20;;;1.30;99.90;;;;;;6197935;23;20184;-70
2023/01/26 10:41:24;;;;;;;15.05;9.75;;;1.30;99.90;;;;;;6193919;23;20319;-69
2023/01/26 10:43:54;;;;;;;14.50;10.45;;;1.40;99.90;;;;;;6194650;23;20238;-69
2023/01/26 10:46:27;;;;;;;13.40;9.48;;;1.50;99.90;;;;;;6184550;23;20239;-70
2023/01/26 10:48:55;;;;;;;15.40;9.57;;;1.50;99.90;;;;;;6206639;23;20188;-69
2023/01/26 10:51:28;;;;;;;12.23;8.95;;;1.50;99.90;;;;;;6196932;23;20249;-67
2023/01/26 10:54:18;;;;;;;13.63;9.75;;;1.50;99.90;;;;;;6210408;23;20551;-69
2023/01/26 10:56:48;;;;;;;11.20;9.30;;;1.50;99.90;;;;;;6190326;23;20707;-69
2023/01/26 10:59:27;;;;;;;12.05;9.43;;;1.40;99.90;;;;;;6187083;23;20211;-69
2023/01/26 11:01:57;;;;;;;15.45;10.05;;;1.40;99.90;;;;;;6198774;23;20182;-69
2023/01/26 11:04:25;;;;;;;12.38;9.35;;;1.40;99.90;;;;;;6197004;23;20298;-69
2023/01/26 11:06:52;;;;;;;12.35;9.77;;;1.40;99.90;;;;;;6187736;23;20283;-69
2023/01/26 11:09:24;;;;;;;13.75;9.50;;;1.40;99.90;;;;;;6193454;23;20186;-69
2023/01/26 11:12:00;;;;;;;15.10;9.35;;;1.40;99.90;;;;;;6192391;23;20183;-69
2023/01/26 11:14:29;;;;;;;13.00;9.80;;;1.40;99.90;;;;;;6191899;23;20315;-69
2023/01/26 11:17:01;;;;;;;13.27;10.95;;;1.40;99.90;;;;;;6195022;23;20186;-69
2023/01/26 11:19:43;;;;;;;15.13;10.20;;;1.50;99.90;;;;;;6185608;23;20210;-68
2023/01/26 11:22:15;;;;;;;13.13;9.55;;;1.50;99.90;;;;;;6191893;23;20716;-69
2023/01/26 11:24:48;;;;;;;12.63;9.82;;;1.60;99.90;;;;;;6199219;23;20341;-69
2023/01/26 11:27:25;;;;;;;13.05;9.65;;;1.50;99.90;;;;;;6184227;23;20183;-69
2023/01/26 11:30:21;;;;;;;15.70;10.45;;;1.50;99.90;;;;;;6190234;23;20262;-68
2023/01/26 11:32:58;;;;;;;11.57;8.90;;;1.40;99.90;;;;;;6156160;23;20666;-69
2023/01/26 11:35:31;;;;;;;13.43;9.13;;;1.40;99.90;;;;;;6193068;23;20188;-68
2023/01/26 11:38:08;;;;;;;16.10;12.90;;;1.40;99.90;;;;;;6199160;23;20658;-69
2023/01/26 11:40:46;;;;;;;15.60;9.93;;;1.40;99.90;;;;;;6195070;23;20217;-69
2023/01/26 11:43:32;;;;;;;14.48;11.98;;;1.40;99.90;;;;;;6189219;23;20918;-69
2023/01/26 11:46:21;;;;;;;14.88;10.55;;;1.50;99.90;;;;;;6200978;23;20650;-69
2023/01/26 11:49:00;;;;;;;14.20;12.15;;;1.50;99.90;;;;;;6191526;23;20698;-68
2023/01/26 11:51:40;;;;;;;14.20;10.23;;;1.50;99.90;;;;;;6186731;23;20704;-69
2023/01/26 11:54:28;;;;;;;14.25;9.65;;;1.60;99.90;;;;;;6195396;23;20211;-69
2023/01/26 11:57:03;;;;;;;15.15;10.50;;;1.50;99.90;;;;;;6191287;23;20214;-70
2023/01/26 11:59:35;;;;;;;15.10;11.48;;;1.50;99.90;;;;;;6187347;23;20194;-68
2023/01/26 12:02:17;;;;;;;16.02;11.50;;;1.50;99.90;;;;;;6199250;23;20632;-68
2023/01/26 12:04:46;;;;;;;16.35;11.50;;;1.50;99.90;;;;;;6202082;23;20195;-69
2023/01/26 12:07:21;;;;;;;17.25;12.35;;;1.50;99.90;;;;;;6195165;23;20199;-69
2023/01/26 12:09:51;;;;;;;17.00;13.70;;;1.50;99.90;;;;;;6195284;23;20266;-69
2023/01/26 12:12:24;;;;;;;17.73;14.93;;;1.50;99.90;;;;;;6183870;23;20734;-70
2023/01/26 12:14:55;;;;;;;21.65;14.45;;;1.60;99.90;;;;;;6179450;23;20258;-70
2023/01/26 12:17:31;;;;;;;22.13;15.20;;;1.50;99.90;;;;;;6184763;23;20282;-69
2023/01/26 12:20:05;;;;;;;20.65;13.18;;;1.60;99.90;;;;;;6176899;23;20203;-70
2023/01/26 12:22:36;;;;;;;17.05;12.90;;;1.60;99.90;;;;;;6181082;23;20208;-70
2023/01/26 12:25:16;;;;;;;19.70;14.20;;;1.60;99.90;;;;;;6179797;23;20183;-70
2023/01/26 12:27:47;;;;;;;19.85;14.10;;;1.60;99.90;;;;;;6178201;23;20193;-70
2023/01/26 12:30:26;;;;;;;18.45;14.38;;;1.50;99.90;;;;;;6199680;23;21093;-70
2023/01/26 12:32:55;;;;;;;16.60;12.57;;;1.50;99.90;;;;;;6194502;23;20620;-69
2023/01/26 12:35:35;;;;;;;16.27;12.00;;;1.50;99.90;;;;;;6202643;23;20291;-69
2023/01/26 12:38:07;;;;;;;20.48;12.52;;;1.50;99.90;;;;;;6194098;23;20179;-69
2023/01/26 12:40:40;;;;;;;18.33;13.90;;;1.50;99.90;;;;;;6196789;23;20274;-69
2023/01/26 12:43:23;;;;;;;18.70;13.68;;;1.50;99.90;;;;;;6196002;23;20748;-70
2023/01/26 12:45:55;;;;;;;17.90;12.45;;;1.50;99.90;;;;;;6174514;23;20734;-69
2023/01/26 12:48:33;;;;;;;18.27;13.05;;;1.50;99.90;;;;;;6183379;23;20270;-69
2023/01/26 12:51:06;;;;;;;17.55;11.90;;;1.50;99.90;;;;;;6174563;23;20186;-69
2023/01/26 12:53:36;;;;;;;17.02;12.77;;;1.50;99.90;;;;;;6191531;23;20208;-69
2023/01/26 12:56:11;;;;;;;18.17;13.05;;;1.50;99.90;;;;;;6194381;23;20233;-70
2023/01/26 12:58:43;;;;;;;15.23;11.98;;;1.60;99.90;;;;;;6204821;23;20201;-68
2023/01/26 13:01:12;;;;;;;18.23;13.40;;;1.50;99.90;;;;;;6198904;23;20195;-69
2023/01/26 13:03:43;;;;;;;19.50;13.48;;;1.50;99.90;;;;;;6194282;23;20574;-69
2023/01/26 13:06:22;;;;;;;17.48;12.57;;;1.70;99.90;;;;;;6188554;23;20277;-71
2023/01/26 13:08:53;;;;;;;17.90;12.20;;;2.00;99.90;;;;;;6198539;23;20194;-69
2023/01/26 13:11:43;;;;;;;15.90;11.73;;;2.30;99.90;;;;;;6180325;23;20234;-68
2023/01/26 13:14:31;;;;;;;17.33;12.45;;;2.30;99.90;;;;;;6191566;23;20762;-69
2023/01/26 13:17:36;;;;;;;18.88;13.88;;;2.30;99.90;;;;;;6209864;23;20262;-70
2023/01/26 13:20:26;;;;;;;18.20;12.75;;;2.20;99.90;;;;;;6197940;23;20297;-70
2023/01/26 13:22:54;;;;;;;15.07;11.23;;;2.10;99.90;;;;;;6189098;23;20206;-69
2023/01/26 13:25:30;;;;;;;16.75;12.10;;;2.10;99.90;;;;;;6192197;23;20188;-70
2023/01/26 13:27:59;;;;;;;19.80;12.52;;;2.10;99.90;;;;;;6194899;23;20186;-69
2023/01/26 13:30:43;;;;;;;16.25;11.98;;;2.00;99.90;;;;;;6182467;23;20703;-70
2023/01/26 13:33:21;;;;;;;16.27;11.75;;;2.00;99.90;;;;;;6200926;23;20210;-69
2023/01/26 13:35:51;;;;;;;17.38;11.05;;;2.00;99.90;;;;;;6209852;23;20182;-68
2023/01/26 13:38:27;;;;;;;16.95;11.85;;;1.90;99.90;;;;;;6185502;23;20623;-69
2023/01/26 13:40:55;;;;;;;17.95;13.10;;;1.90;99.90;;;;;;6206148;23;20212;-69
2023/01/26 13:43:32;;;;;;;17.85;12.15;;;1.80;99.90;;;;;;6196944;23;20682;-68
2023/01/26 13:46:11;;;;;;;16.30;12.13;;;1.70;99.90;;;;;;6192180;23;20182;-69